Home > Products > Valid Products > TAF

000
FTUS45 KREV 252300
TAFRNO
TAF
KRNO 252330Z 2600/2624 16017G30KT P6SM SCT090 WS010/25050KT
     FM260400 29007KT P6SM SCT060
     FM261400 33005KT P6SM FEW200=



000
FTUS45 KREV 252000 AAB
TAFRNO
TAF AMD
KRNO 252058Z 2521/2618 20030G44KT P6SM VCSH SCT060 BKN100
      WS010/22055KT
      TEMPO 2521/2522 30020G35KT
     FM260000 17017G28KT P6SM SCT100 BKN150 WS010/25050KT
     FM260400 29007KT P6SM SCT060
     FM261300 32005KT P6SM SKC=



000
FTUS45 KREV 252000 AAA
TAFRNO
TAF AMD
KRNO 252037Z 2521/2618 20030G44KT P6SM SCT100 WS010/22055KT
      TEMPO 2521/2522 30020G35KT
     FM260000 17017G28KT P6SM SCT100 BKN150 WS010/25050KT
     FM260400 29007KT P6SM SCT060
     FM261300 32005KT P6SM SKC=



000
FTUS45 KREV 251700
TAFRNO
TAF
KRNO 251728Z 2518/2618 20030G44KT P6SM SCT100 WS010/22055KT
     FM260000 17017G28KT P6SM SCT100 BKN150 WS010/25050KT
     FM260400 29007KT P6SM SCT060
     FM261300 32005KT P6SM SKC=



000
FTUS45 KREV 251300 AAA
TAFRNO
TAF AMD
KRNO 251311Z 2513/2612 19022G34KT P6SM SCT200 WS015/23040KT
     FM251700 19026G38KT P6SM SCT100 BKN200 WS015/23045KT
     FM252100 25014G22KT P6SM SCT100 BKN150
     FM260400 29007KT P6SM SCT100=



000
FTUS45 KREV 251100
TAFRNO
TAF
KRNO 251121Z 2512/2612 18015G25KT P6SM SCT200
     FM251400 17022G34KT P6SM SCT200 WS015/23040KT
     FM251700 19026G38KT P6SM SCT100 BKN200 WS015/23045KT
     FM252100 25014G22KT P6SM SCT100 BKN150
     FM260400 29007KT P6SM SCT100=



000
FTUS45 KREV 251100
TAFRNO
TAF
KRNO 251121Z 2512/2612 18015G25KT P6SM SCT200
     FM251400 17022G34KT P6SM SCT200 WS015/23040KT
     FM251700 19026G38KT P6SM SCT100 BKN200 WS015/23045KT
     FM252100 25014G22KT P6SM SCT100 BKN150
     FM260400 29007KT P6SM SCT100=



000
FTUS45 KREV 250500
TAFRNO
TAF
KRNO 250521Z 2506/2606 17011KT P6SM FEW200
     FM251400 20012G24KT P6SM SCT200
     FM252000 22026G38KT P6SM SCT100 BKN200
     FM260200 25014G22KT P6SM SCT100 BKN200=



000
FTUS45 KREV 242300
TAFRNO
TAF
KRNO 242335Z 2500/2524 23015G25KT P6SM SKC
     FM250200 22008G14KT P6SM SKC
     FM250600 21008KT P6SM SKC
     FM251000 20012G25KT P6SM SCT200
     FM251900 28026G38KT P6SM SCT100 BKN160=



000
FTUS45 KREV 242000 AAB
TAFRNO
TAF AMD
KRNO 242044Z 2421/2518 19015G25KT P6SM SKC
     FM250200 20008KT P6SM SKC
     FM251000 18012G25KT P6SM SCT200=



000
FTUS45 KREV 242000 AAA
TAFRNO
TAF AMD
KRNO 242019Z 2420/2518 VRB04KT P6SM SKC
     FM242300 19014G24KT P6SM SKC
     FM250200 20008KT P6SM SKC
     FM251000 18012G25KT P6SM SCT200=



000
FTUS45 KREV 241700
TAFRNO
TAF
KRNO 241720Z 2418/2518 VRB04KT P6SM SKC
     FM242000 19014G24KT P6SM SKC
     FM250200 20008KT P6SM SKC
     FM251000 18012G25KT P6SM SCT200=



000
FTUS45 KREV 241100
TAFRNO
TAF
KRNO 241120Z 2412/2512 VRB04KT P6SM SCT200
     FM241700 19009KT P6SM SCT200
     FM242000 19014G24KT P6SM SCT200
     FM250200 20011KT P6SM FEW200=



000
FTUS45 KREV 240500
TAFRNO
TAF
KRNO 240529Z 2406/2506 VRB04KT P6SM SCT200
     FM241700 19009KT P6SM SCT200
     FM242000 19014G24KT P6SM SCT200
     FM250200 20011KT P6SM FEW200=



000
FTUS45 KREV 232300
TAFRNO
TAF
KRNO 232320Z 2400/2424 28010G20KT P6SM BKN180
     FM240100 30008KT P6SM BKN180
     FM240600 VRB03KT P6SM SCT180
     FM242000 19014G23KT P6SM SKC=



000
FTUS45 KREV 231700
TAFRNO
TAF
KRNO 231720Z 2318/2418 VRB04KT P6SM SCT140 BKN180
     FM232000 23010G20KT P6SM BKN180
     FM240100 30008KT P6SM SCT180
     FM240600 VRB03KT P6SM SKC=



000
FTUS45 KREV 231100
TAFRNO
TAF
KRNO 231120Z 2312/2412 VRB04KT P6SM SCT140 BKN180
     FM232000 23010G20KT P6SM BKN180
     FM240100 30008KT P6SM SCT180
     FM240600 VRB03KT P6SM SKC=



000
FTUS45 KREV 230500
TAFRNO
TAF
KRNO 230523Z 2306/2406 28006KT P6SM SCT140 BKN200
     FM231100 VRB04KT P6SM SCT120 BKN200
     FM232000 24009G17KT P6SM SCT100 OVC160
     FM240100 29008G15KT P6SM SCT080 OVC140=



    US Dept of Commerce
    National Oceanic and Atmospheric Administration
    National Weather Service
    1325 East West Highway
    Silver Spring, MD 20910
    Page Author: NWS Internet Services Team
Disclaimer
Information Quality
Credits
Glossary
Privacy Policy
Freedom of Information Act (FOIA)
About Us
Career Opportunities